createdAt,value
2019-03-10T00:00:12.313Z,89.60
2019-03-10T00:02:40.701Z,87.50
2019-03-10T00:05:09.172Z,88.90
2019-03-10T00:07:37.577Z,89.50
2019-03-10T00:10:09.419Z,89.10
2019-03-10T00:12:37.800Z,88.70
2019-03-10T00:15:12.706Z,89.70
2019-03-10T00:17:41.092Z,87.90
2019-03-10T00:20:11.129Z,88.40
2019-03-10T00:22:41.207Z,89.60
2019-03-10T00:25:10.427Z,89.90
2019-03-10T00:27:38.808Z,89.90
2019-03-10T00:30:10.252Z,89.20
2019-03-10T00:32:38.915Z,88.80
2019-03-10T00:35:07.423Z,88.60
2019-03-10T00:37:35.800Z,89.30
2019-03-10T00:40:07.272Z,88.90
2019-03-10T00:42:58.619Z,89.70
2019-03-10T00:45:52.248Z,88.90
2019-03-10T00:48:35.566Z,90.00
2019-03-10T00:51:09.953Z,89.40
2019-03-10T00:53:38.339Z,89.70
2019-03-10T00:56:06.751Z,89.50
2019-03-10T00:58:35.120Z,89.30
2019-03-10T01:01:03.507Z,89.50
2019-03-10T01:03:31.954Z,89.30
2019-03-10T01:06:00.343Z,89.80
2019-03-10T01:08:28.803Z,89.20
2019-03-10T01:10:57.199Z,89.50
2019-03-10T01:13:25.921Z,90.00
2019-03-10T01:15:55.160Z,89.90
2019-03-10T01:18:24.280Z,90.00
2019-03-10T01:20:53.681Z,89.90
2019-03-10T01:23:22.060Z,90.00
2019-03-10T01:25:50.456Z,90.10
2019-03-10T01:28:18.832Z,90.10
2019-03-10T01:30:50.309Z,90.00
2019-03-10T01:33:27.173Z,90.00
2019-03-10T01:35:55.572Z,90.10
2019-03-10T01:38:23.956Z,90.10
2019-03-10T01:40:52.340Z,90.10
2019-03-10T01:43:20.732Z,90.20
2019-03-10T01:45:49.115Z,90.30
2019-03-10T01:48:17.520Z,90.30
2019-03-10T01:50:45.895Z,90.40
2019-03-10T01:53:14.355Z,90.40
2019-03-10T01:55:42.747Z,90.80
2019-03-10T01:58:11.137Z,90.50
2019-03-10T02:00:39.593Z,90.50
2019-03-10T02:03:07.996Z,90.50
2019-03-10T02:05:36.146Z,90.60
2019-03-10T02:08:04.537Z,90.60
2019-03-10T02:10:32.916Z,90.70
2019-03-10T02:13:01.320Z,90.70
2019-03-10T02:15:29.703Z,90.70
2019-03-10T02:17:58.106Z,90.70
2019-03-10T02:20:26.476Z,90.80
2019-03-10T02:22:54.872Z,90.70
2019-03-10T02:25:23.252Z,90.80
2019-03-10T02:27:51.657Z,91.10
2019-03-10T02:30:20.113Z,91.00
2019-03-10T02:32:48.513Z,91.00
2019-03-10T02:35:17.170Z,91.00
2019-03-10T02:37:45.965Z,91.30
2019-03-10T02:40:14.486Z,91.30
2019-03-10T02:42:42.872Z,91.10
2019-03-10T02:45:11.480Z,91.00
2019-03-10T02:47:39.871Z,91.50
2019-03-10T02:50:10.181Z,91.50
2019-03-10T02:52:38.577Z,91.40
2019-03-10T02:55:08.497Z,91.20
2019-03-10T02:57:36.892Z,91.20
2019-03-10T03:00:13.204Z,91.10
2019-03-10T03:02:41.585Z,91.10
2019-03-10T03:05:10.603Z,90.70
2019-03-10T03:07:38.998Z,90.90
2019-03-10T03:10:10.283Z,91.10
2019-03-10T03:12:38.676Z,91.00
2019-03-10T03:15:09.115Z,90.90
2019-03-10T03:17:37.514Z,91.60
2019-03-10T03:20:09.491Z,91.20
2019-03-10T03:22:37.893Z,91.00
2019-03-10T03:25:08.812Z,91.00
2019-03-10T03:27:37.196Z,91.80
2019-03-10T03:30:08.898Z,91.20
2019-03-10T03:32:37.273Z,91.60
2019-03-10T03:35:25.145Z,91.40
2019-03-10T03:37:53.557Z,91.30
2019-03-10T03:40:22.265Z,91.60
2019-03-10T03:42:50.645Z,92.00
2019-03-10T03:45:19.041Z,92.10
2019-03-10T03:47:47.418Z,92.30
2019-03-10T03:50:15.820Z,92.40
2019-03-10T03:52:44.194Z,93.40
2019-03-10T03:55:12.598Z,92.90
2019-03-10T03:57:40.969Z,93.40
2019-03-10T04:00:11.815Z,93.00
2019-03-10T04:02:40.205Z,94.10
2019-03-10T04:05:10.134Z,94.40
2019-03-10T04:07:38.507Z,94.40
2019-03-10T04:10:08.714Z,94.60
2019-03-10T04:12:37.097Z,94.60
2019-03-10T04:15:06.365Z,94.10
2019-03-10T04:17:34.756Z,94.20
2019-03-10T04:20:03.818Z,94.50
2019-03-10T04:22:32.510Z,94.40
2019-03-10T04:25:00.900Z,94.40
2019-03-10T04:27:29.288Z,94.40
2019-03-10T04:29:57.676Z,94.20
2019-03-10T04:32:26.065Z,95.00
2019-03-10T04:34:54.462Z,94.30
2019-03-10T04:37:22.856Z,94.50
2019-03-10T04:39:51.236Z,94.40
2019-03-10T04:42:19.614Z,94.50
2019-03-10T04:44:48.004Z,94.20
2019-03-10T04:47:16.396Z,94.20
2019-03-10T04:49:44.798Z,94.40
2019-03-10T04:52:13.181Z,94.50
2019-03-10T04:54:45.924Z,94.60
2019-03-10T04:57:15.943Z,94.30
2019-03-10T04:59:44.667Z,94.20
2019-03-10T05:02:13.043Z,94.30
2019-03-10T05:04:41.439Z,94.30
2019-03-10T05:07:09.824Z,94.30
2019-03-10T05:09:38.212Z,94.70
2019-03-10T05:12:06.595Z,95.00
2019-03-10T05:14:34.975Z,95.20
2019-03-10T05:17:03.373Z,95.40
2019-03-10T05:19:31.756Z,95.40
2019-03-10T05:22:00.145Z,95.60
2019-03-10T05:24:28.529Z,95.60
2019-03-10T05:26:56.922Z,95.80
2019-03-10T05:29:25.290Z,95.80
2019-03-10T05:31:53.680Z,95.80
2019-03-10T05:34:22.051Z,95.90
2019-03-10T05:36:50.439Z,95.90
2019-03-10T05:39:18.822Z,95.80
2019-03-10T05:41:47.208Z,95.80
2019-03-10T05:44:15.593Z,95.90
2019-03-10T05:46:43.991Z,95.70
2019-03-10T05:49:12.431Z,96.00
2019-03-10T05:51:40.820Z,95.70
2019-03-10T05:54:09.206Z,95.60
2019-03-10T05:56:37.591Z,95.90
2019-03-10T05:59:05.970Z,96.10
2019-03-10T06:01:34.373Z,96.10
2019-03-10T06:04:02.750Z,95.80
2019-03-10T06:06:31.134Z,96.00
2019-03-10T06:08:59.506Z,96.10
2019-03-10T06:11:27.892Z,96.60
2019-03-10T06:13:56.278Z,96.30
2019-03-10T06:16:24.663Z,96.10
2019-03-10T06:18:53.059Z,95.90
2019-03-10T06:21:21.444Z,96.70
2019-03-10T06:23:49.836Z,96.60
2019-03-10T06:26:18.233Z,96.80
2019-03-10T06:28:46.609Z,96.80
2019-03-10T06:31:14.993Z,96.80
2019-03-10T06:33:43.367Z,96.80
2019-03-10T06:36:11.756Z,96.70
2019-03-10T06:38:40.139Z,97.10
2019-03-10T06:41:08.516Z,97.10
2019-03-10T06:43:36.913Z,97.60
2019-03-10T06:46:05.292Z,97.50
2019-03-10T06:48:33.675Z,97.70
2019-03-10T06:51:02.057Z,97.80
2019-03-10T06:53:30.452Z,98.10
2019-03-10T06:55:58.829Z,98.00
2019-03-10T06:58:27.223Z,97.70
2019-03-10T07:00:55.609Z,97.70
2019-03-10T07:03:23.977Z,98.00
2019-03-10T07:05:52.364Z,97.20
2019-03-10T07:08:20.744Z,97.90
2019-03-10T07:10:49.125Z,97.70
2019-03-10T07:13:17.509Z,97.80
2019-03-10T07:15:45.890Z,97.10
2019-03-10T07:18:14.276Z,97.80
2019-03-10T07:20:42.653Z,97.30
2019-03-10T07:23:12.681Z,97.10
2019-03-10T07:25:41.057Z,97.70
2019-03-10T07:28:17.065Z,96.80
2019-03-10T07:30:49.737Z,97.40
2019-03-10T07:33:22.733Z,96.00
2019-03-10T07:36:10.841Z,96.30
2019-03-10T07:38:47.141Z,96.20
2019-03-10T07:41:17.163Z,96.00
2019-03-10T07:43:53.212Z,97.10
2019-03-10T07:46:29.206Z,96.00
2019-03-10T07:49:05.490Z,96.60
2019-03-10T07:51:53.799Z,97.10
2019-03-10T07:54:26.590Z,97.50
2019-03-10T07:57:05.768Z,97.40
2019-03-10T07:59:52.059Z,96.70
2019-03-10T08:02:31.358Z,96.70
2019-03-10T08:05:01.406Z,97.50
2019-03-10T08:07:34.400Z,97.00
2019-03-10T08:10:07.443Z,97.10
2019-03-10T08:12:43.436Z,97.50
2019-03-10T08:15:13.532Z,96.60
2019-03-10T08:17:59.811Z,97.30
2019-03-10T08:20:35.796Z,97.70
2019-03-10T08:23:05.812Z,97.40
2019-03-10T08:25:41.700Z,96.80
2019-03-10T08:28:11.720Z,97.80
2019-03-10T08:30:41.760Z,97.90
2019-03-10T08:33:26.602Z,97.10
2019-03-10T08:35:56.692Z,98.40
2019-03-10T08:38:35.640Z,96.70
2019-03-10T08:41:05.679Z,96.90
2019-03-10T08:43:51.793Z,98.00
2019-03-10T08:46:28.127Z,97.00
2019-03-10T08:48:58.144Z,96.40
2019-03-10T08:51:44.412Z,96.40
2019-03-10T08:54:17.356Z,97.70
2019-03-10T08:56:47.380Z,98.20
2019-03-10T08:59:17.418Z,97.40
2019-03-10T09:01:50.420Z,97.30
2019-03-10T09:04:20.440Z,96.50
2019-03-10T09:07:02.553Z,97.40
2019-03-10T09:09:48.789Z,97.60
2019-03-10T09:12:18.822Z,97.00
2019-03-10T09:14:51.573Z,98.20
2019-03-10T09:17:21.600Z,97.90
2019-03-10T09:20:00.410Z,97.00
2019-03-10T09:22:42.299Z,97.50
2019-03-10T09:25:15.367Z,97.30
2019-03-10T09:27:54.489Z,96.90
2019-03-10T09:30:27.584Z,97.50
2019-03-10T09:33:03.442Z,97.00
2019-03-10T09:35:33.460Z,96.80
2019-03-10T09:38:06.148Z,97.30
2019-03-10T09:40:36.188Z,97.30
2019-03-10T09:43:22.052Z,97.20
2019-03-10T09:46:04.197Z,97.10
2019-03-10T09:48:36.869Z,97.00
2019-03-10T09:51:18.662Z,96.70
2019-03-10T09:53:51.449Z,96.50
2019-03-10T09:56:21.498Z,96.30
2019-03-10T09:59:00.225Z,96.40
2019-03-10T10:01:30.252Z,96.40
2019-03-10T10:04:12.147Z,96.10
2019-03-10T10:06:42.420Z,96.20
2019-03-10T10:09:27.340Z,96.10
2019-03-10T10:11:57.379Z,95.90
2019-03-10T10:14:33.084Z,95.80
2019-03-10T10:17:05.837Z,95.70
2019-03-10T10:19:41.695Z,95.70
2019-03-10T10:22:27.936Z,95.80
2019-03-10T10:24:57.951Z,95.80
2019-03-10T10:27:33.965Z,95.70
2019-03-10T10:30:06.673Z,95.60
2019-03-10T10:32:39.484Z,95.90
2019-03-10T10:35:23.269Z,95.50
2019-03-10T10:38:18.236Z,94.80
2019-03-10T10:40:46.004Z,94.80
2019-03-10T10:43:18.734Z,94.60
2019-03-10T10:46:03.613Z,95.00
2019-03-10T10:48:36.396Z,94.90
2019-03-10T10:51:06.529Z,93.40
2019-03-10T10:53:48.613Z,94.10
2019-03-10T10:56:34.462Z,93.10
2019-03-10T10:59:07.395Z,93.80
2019-03-10T11:01:45.936Z,94.00
2019-03-10T11:04:18.890Z,94.30
2019-03-10T11:06:48.977Z,93.20
2019-03-10T11:09:21.725Z,93.30
2019-03-10T11:12:09.621Z,92.30
2019-03-10T11:14:39.650Z,93.20
2019-03-10T11:17:25.590Z,92.10
2019-03-10T11:20:07.724Z,92.40
2019-03-10T11:22:53.961Z,92.80
2019-03-10T11:25:26.944Z,92.90
2019-03-10T11:27:56.972Z,92.10
2019-03-10T11:30:35.828Z,92.70
2019-03-10T11:33:05.934Z,92.00
2019-03-10T11:35:35.978Z,91.90
2019-03-10T11:38:14.731Z,91.70
2019-03-10T11:40:44.753Z,92.30
2019-03-10T11:43:22.703Z,92.70
2019-03-10T11:45:52.244Z,92.50
2019-03-10T11:48:31.205Z,92.40
2019-03-10T11:51:17.391Z,92.50
2019-03-10T11:53:59.449Z,92.50
2019-03-10T11:56:35.294Z,92.70
2019-03-10T11:59:08.289Z,92.50
2019-03-10T12:01:54.549Z,92.40
2019-03-10T12:04:41.134Z,91.60
2019-03-10T12:07:16.925Z,90.10
2019-03-10T12:09:45.337Z,90.40
2019-03-10T12:12:13.720Z,89.10
2019-03-10T12:14:42.124Z,90.50
2019-03-10T12:17:10.514Z,91.30
2019-03-10T12:19:38.906Z,90.00
2019-03-10T12:22:07.298Z,88.70
2019-03-10T12:24:35.713Z,89.00
2019-03-10T12:27:04.100Z,85.40
2019-03-10T12:29:32.494Z,90.80
2019-03-10T12:32:00.876Z,89.70
2019-03-10T12:34:29.265Z,88.10
2019-03-10T12:36:57.661Z,88.20
2019-03-10T12:39:26.062Z,85.60
2019-03-10T12:41:58.506Z,85.10
2019-03-10T12:44:24.567Z,80.90
2019-03-10T12:46:52.944Z,84.60
2019-03-10T12:49:21.336Z,81.90
2019-03-10T12:51:49.741Z,84.80
2019-03-10T12:54:18.157Z,84.90
2019-03-10T12:56:46.540Z,85.20
2019-03-10T12:59:16.478Z,83.70
2019-03-10T13:01:44.856Z,79.20
2019-03-10T13:04:13.263Z,82.20
2019-03-10T13:06:41.859Z,81.50
2019-03-10T13:09:10.625Z,82.00
2019-03-10T13:11:39.058Z,80.10
2019-03-10T13:14:07.485Z,78.90
2019-03-10T13:16:35.882Z,75.40
2019-03-10T13:19:04.298Z,78.70
2019-03-10T13:21:32.669Z,79.10
2019-03-10T13:24:01.120Z,72.10
2019-03-10T13:26:29.501Z,80.30
2019-03-10T13:28:57.904Z,79.00
2019-03-10T13:31:26.281Z,78.70
2019-03-10T13:33:54.678Z,78.20
2019-03-10T13:36:23.060Z,73.90
2019-03-10T13:38:51.449Z,75.40
2019-03-10T13:41:19.834Z,74.00
2019-03-10T13:43:48.212Z,76.30
2019-03-10T13:46:16.965Z,75.10
2019-03-10T13:48:45.355Z,73.70
2019-03-10T13:51:13.824Z,77.00
2019-03-10T13:53:42.242Z,71.30
2019-03-10T13:56:10.615Z,73.40
2019-03-10T13:58:38.997Z,77.90
2019-03-10T14:01:07.396Z,73.30
2019-03-10T14:03:35.917Z,76.20
2019-03-10T14:06:04.397Z,70.50
2019-03-10T14:08:32.779Z,74.90
2019-03-10T14:11:01.177Z,67.60
2019-03-10T14:13:29.567Z,69.30
2019-03-10T14:15:57.972Z,73.10
2019-03-10T14:18:26.339Z,70.50
2019-03-10T14:20:54.744Z,67.80
2019-03-10T14:23:23.188Z,68.90
2019-03-10T14:25:51.660Z,66.70
2019-03-10T14:28:22.136Z,67.90
2019-03-10T14:30:50.338Z,69.20
2019-03-10T14:33:18.799Z,72.50
2019-03-10T14:35:47.198Z,70.10
2019-03-10T14:38:15.577Z,71.10
2019-03-10T14:40:43.980Z,69.30
2019-03-10T14:43:12.367Z,69.40
2019-03-10T14:45:40.760Z,67.50
2019-03-10T14:48:09.152Z,70.60
2019-03-10T14:50:37.540Z,65.40
2019-03-10T14:53:05.998Z,70.00
2019-03-10T14:55:34.379Z,64.60
2019-03-10T14:58:02.765Z,64.20
2019-03-10T15:00:31.636Z,60.40
2019-03-10T15:03:00.043Z,68.30
2019-03-10T15:05:28.420Z,65.10
2019-03-10T15:07:57.092Z,63.70
2019-03-10T15:10:25.572Z,65.70
2019-03-10T15:12:53.952Z,60.80
2019-03-10T15:15:23.316Z,64.20
2019-03-10T15:17:51.890Z,56.70
2019-03-10T15:20:21.642Z,67.50
2019-03-10T15:22:50.419Z,65.80
2019-03-10T15:25:19.965Z,61.40
2019-03-10T15:27:48.442Z,66.00
2019-03-10T15:30:19.034Z,59.30
2019-03-10T15:32:46.648Z,67.40
2019-03-10T15:35:15.164Z,66.20
2019-03-10T15:37:43.559Z,63.40
2019-03-10T15:40:15.030Z,66.40
2019-03-10T15:42:43.770Z,60.40
2019-03-10T15:45:14.261Z,59.40
2019-03-10T15:47:43.490Z,64.00
2019-03-10T15:50:26.563Z,57.50
2019-03-10T15:52:55.029Z,58.10
2019-03-10T15:55:23.421Z,66.70
2019-03-10T15:57:51.992Z,64.50
2019-03-10T16:00:23.445Z,62.90
2019-03-10T16:02:52.009Z,60.10
2019-03-10T16:05:20.388Z,60.00
2019-03-10T16:07:48.858Z,65.30
2019-03-10T16:10:17.326Z,66.00
2019-03-10T16:12:45.700Z,64.80
2019-03-10T16:15:27.524Z,64.70
2019-03-10T16:17:55.931Z,63.80
2019-03-10T16:20:24.310Z,59.10
2019-03-10T16:22:55.207Z,66.40
2019-03-10T16:25:22.868Z,57.60
2019-03-10T16:27:51.265Z,61.30
2019-03-10T16:30:21.648Z,60.90
2019-03-10T16:32:50.052Z,60.60
2019-03-10T16:35:18.413Z,61.10
2019-03-10T16:37:46.816Z,61.90
2019-03-10T16:40:16.262Z,62.30
2019-03-10T16:42:44.636Z,60.30
2019-03-10T16:45:19.005Z,58.70
2019-03-10T16:47:47.393Z,65.10
2019-03-10T16:50:18.080Z,65.70
2019-03-10T16:52:46.497Z,69.80
2019-03-10T16:55:14.912Z,67.70
2019-03-10T16:57:43.400Z,66.40
2019-03-10T17:00:12.919Z,64.90
2019-03-10T17:02:43.255Z,68.70
2019-03-10T17:05:22.050Z,69.40
2019-03-10T17:07:50.512Z,69.70
2019-03-10T17:10:21.116Z,67.70
2019-03-10T17:12:48.802Z,63.90
2019-03-10T17:15:21.193Z,63.30
2019-03-10T17:17:49.657Z,64.60
2019-03-10T17:20:18.786Z,62.90
2019-03-10T17:22:47.350Z,67.60
2019-03-10T17:25:16.263Z,64.10
2019-03-10T17:27:44.996Z,69.10
2019-03-10T17:30:21.147Z,68.50
2019-03-10T17:32:49.821Z,67.70
2019-03-10T17:35:18.947Z,67.90
2019-03-10T17:37:48.693Z,70.20
2019-03-10T17:40:20.503Z,66.50
2019-03-10T17:42:48.957Z,69.70
2019-03-10T17:45:21.048Z,71.20
2019-03-10T17:47:49.442Z,72.20
2019-03-10T17:50:18.384Z,74.30
2019-03-10T17:52:47.029Z,75.30
2019-03-10T17:55:17.726Z,71.20
2019-03-10T17:57:46.104Z,72.50
2019-03-10T18:00:29.216Z,74.20
2019-03-10T18:02:57.610Z,77.00
2019-03-10T18:05:25.997Z,77.40
2019-03-10T18:07:54.383Z,71.60
2019-03-10T18:10:23.032Z,76.30
2019-03-10T18:12:51.418Z,76.00
2019-03-10T18:15:19.880Z,74.70
2019-03-10T18:17:48.255Z,73.30
2019-03-10T18:20:19.749Z,71.20
2019-03-10T18:22:48.196Z,72.70
2019-03-10T18:25:16.665Z,75.10
2019-03-10T18:27:45.118Z,76.40
2019-03-10T18:30:20.515Z,72.00
2019-03-10T18:32:49.063Z,75.70
2019-03-10T18:35:17.460Z,71.60
2019-03-10T18:37:46.175Z,75.00
2019-03-10T18:40:17.113Z,73.40
2019-03-10T18:42:45.496Z,71.30
2019-03-10T18:45:16.148Z,71.80
2019-03-10T18:47:43.747Z,70.30
2019-03-10T18:50:14.679Z,74.30
2019-03-10T18:52:43.064Z,76.50
2019-03-10T18:55:13.000Z,72.50
2019-03-10T18:57:41.459Z,72.30
2019-03-10T19:00:21.600Z,76.00
2019-03-10T19:02:50.352Z,75.30
2019-03-10T19:05:18.732Z,75.30
2019-03-10T19:07:47.107Z,75.30
2019-03-10T19:10:15.572Z,72.10
2019-03-10T19:12:44.010Z,73.70
2019-03-10T19:15:29.049Z,75.30
2019-03-10T19:17:57.423Z,74.40
2019-03-10T19:20:25.804Z,77.30
2019-03-10T19:22:54.194Z,74.50
2019-03-10T19:25:22.636Z,76.90
2019-03-10T19:27:51.015Z,73.10
2019-03-10T19:30:23.006Z,75.60
2019-03-10T19:32:51.387Z,73.10
2019-03-10T19:35:19.841Z,75.60
2019-03-10T19:37:48.223Z,71.40
2019-03-10T19:40:23.457Z,77.30
2019-03-10T19:42:51.844Z,74.50
2019-03-10T19:45:21.276Z,76.60
2019-03-10T19:47:49.657Z,73.10
2019-03-10T19:50:20.380Z,75.90
2019-03-10T19:52:48.759Z,76.90
2019-03-10T19:55:17.152Z,74.30
2019-03-10T19:57:45.529Z,74.60
2019-03-10T20:00:20.570Z,76.10
2019-03-10T20:02:49.027Z,75.10
2019-03-10T20:05:17.475Z,72.10
2019-03-10T20:07:45.931Z,71.50
2019-03-10T20:10:16.527Z,74.10
2019-03-10T20:12:44.127Z,72.10
2019-03-10T20:15:14.557Z,75.00
2019-03-10T20:17:42.940Z,74.30
2019-03-10T20:20:13.371Z,74.70
2019-03-10T20:22:41.742Z,76.20
2019-03-10T20:25:12.173Z,71.90
2019-03-10T20:27:40.544Z,74.40
2019-03-10T20:30:17.111Z,73.60
2019-03-10T20:32:45.489Z,76.10
2019-03-10T20:35:13.949Z,73.40
2019-03-10T20:37:42.319Z,74.00
2019-03-10T20:40:16.604Z,75.90
2019-03-10T20:42:44.971Z,71.80
2019-03-10T20:45:13.879Z,72.10
2019-03-10T20:47:43.036Z,75.90
2019-03-10T20:50:15.814Z,72.40
2019-03-10T20:52:44.227Z,72.20
2019-03-10T20:55:13.523Z,76.50
2019-03-10T20:57:41.916Z,73.00
2019-03-10T21:00:12.900Z,72.80
2019-03-10T21:02:41.289Z,75.10
2019-03-10T21:05:11.110Z,75.00
2019-03-10T21:07:39.502Z,75.00
2019-03-10T21:10:13.693Z,71.10
2019-03-10T21:12:42.896Z,76.00
2019-03-10T21:15:16.672Z,74.70
2019-03-10T21:17:45.063Z,71.20
2019-03-10T21:20:15.284Z,72.60
2019-03-10T21:22:43.747Z,74.90
2019-03-10T21:25:14.726Z,73.30
2019-03-10T21:27:43.189Z,74.80
2019-03-10T21:30:14.824Z,69.90
2019-03-10T21:32:43.233Z,75.80
2019-03-10T21:35:17.505Z,70.10
2019-03-10T21:37:41.721Z,74.30
2019-03-10T21:40:22.204Z,72.00
2019-03-10T21:42:50.676Z,76.20
2019-03-10T21:45:19.056Z,72.30
2019-03-10T21:47:47.444Z,75.30
2019-03-10T21:50:17.165Z,75.30
2019-03-10T21:52:45.693Z,71.50
2019-03-10T21:55:15.013Z,72.30
2019-03-10T21:57:43.395Z,70.80
2019-03-10T22:00:14.844Z,71.20
2019-03-10T22:02:43.230Z,75.10
2019-03-10T22:05:12.844Z,74.50
2019-03-10T22:07:41.233Z,75.20
2019-03-10T22:10:12.213Z,68.10
2019-03-10T22:12:40.675Z,75.00
2019-03-10T22:15:11.493Z,76.50
2019-03-10T22:17:39.957Z,75.30
2019-03-10T22:20:12.972Z,73.40
2019-03-10T22:22:48.474Z,72.00
2019-03-10T22:25:13.388Z,75.20
2019-03-10T22:27:41.950Z,76.90
2019-03-10T22:30:13.036Z,76.20
2019-03-10T22:32:41.428Z,77.20
2019-03-10T22:35:09.947Z,75.90
2019-03-10T22:37:38.336Z,74.80
2019-03-10T22:40:09.721Z,76.10
2019-03-10T22:42:38.108Z,76.60
2019-03-10T22:45:09.827Z,74.30
2019-03-10T22:47:38.211Z,75.80
2019-03-10T22:50:09.437Z,74.10
2019-03-10T22:52:37.815Z,77.50
2019-03-10T22:55:07.845Z,73.20
2019-03-10T22:57:36.227Z,75.00
2019-03-10T23:00:10.212Z,75.20
2019-03-10T23:02:38.606Z,77.80
2019-03-10T23:05:07.524Z,75.60
2019-03-10T23:07:35.908Z,76.60
2019-03-10T23:10:07.300Z,72.20
2019-03-10T23:12:35.693Z,73.70
2019-03-10T23:15:05.713Z,74.70
2019-03-10T23:17:34.095Z,77.10
2019-03-10T23:20:02.482Z,76.50
2019-03-10T23:22:30.864Z,76.90
2019-03-10T23:25:01.522Z,73.40
2019-03-10T23:27:29.343Z,72.60
2019-03-10T23:29:57.732Z,77.10
2019-03-10T23:32:26.108Z,72.20
2019-03-10T23:34:54.522Z,76.00
2019-03-10T23:37:22.885Z,74.60
2019-03-10T23:39:51.268Z,75.10
2019-03-10T23:42:19.650Z,75.70
2019-03-10T23:44:48.045Z,72.60
2019-03-10T23:47:16.429Z,75.60
2019-03-10T23:49:44.820Z,76.50
2019-03-10T23:52:13.205Z,74.80
2019-03-10T23:54:41.599Z,77.50
2019-03-10T23:57:09.968Z,77.30
2019-03-10T23:59:38.357Z,76.60
